Easter Island, Chile

10:46 AM -05 on 四月 23, 2017 (GMT -0500)
Mataveri International | | Change Station

高度 167 ft 27.15 °S, 109.42 °W | Updated 46 minutes ago

所により曇
所により曇
73 °F
体感気温 73 °F
13
風 変数 風 から

今日
高い -- | 低 -- °F
--% 降水確率
昨日
高い -- | 低 -- °F
Precip. -- インチ
気圧 30.18 インチ
視程 6.2 マイル
わずか 2000 ft
やや曇 25000 ft
露点温度 70 °F
湿度 88%
降水 0.00 インチ
積雪深 利用不可。
8:38 AM 7:52 PM
二十六夜, 11% visible
METAR SCIP 231500Z 09011KT 9999 FEW020 SCT250 23/21 Q1022 NOSIG
気圧 30.18 インチ
視程 6.2 マイル
わずか 2000 ft
やや曇 25000 ft
露点温度 70 °F
湿度 88%
降水 0.00 インチ
積雪深 利用不可。
8:38 AM 7:52 PM
二十六夜, 11% visible
METAR SCIP 231500Z 09011KT 9999 FEW020 SCT250 23/21 Q1022 NOSIG

Get Severe Weather Alerts

Thanks for signing up!

Be on the lookout for a verification email in your inbox.

You'll start receiving the daily forecast at 8 AM.

×

10-Day Weather Forecast

No radar image for this location.
×

Almanac

天文

Apr. 23, 2017 入り
実時間
常用薄明
航海薄明
天文薄明
可視光の長さ
可照時間
Tomorrow will be .
, % of the Moon is Illuminated

今日の極値

Country Highs Country Lows

Community

WunderBlog® & News

Nearby

空気品質

  空気品質 大気質指数 汚染物質
Not available.

積雪深

Station Depth 高度

地震活動

Distance Mag. Time & Date
Minimum magnitude displayed is 2.5.

沿岸の水温

地名 気温

Stations

最寄りの気象観測所

観測所位置 温度 体感気温(寒さ) 露点温度 湿度 Precip. 高度 更新日時 タイプする